Time;durP1;ratioP1;P1;durP2;ratioP2;P2;SDS_P1;SDS_P2;PMS_P1;PMS_P2;Temp;Humidity;BMP_temperature;BMP_pressure;BME280_temperature;BME280_humidity;BME280_pressure;Samples;Min_cycle;Max_cycle;Signal;HPM_P1;HPM_P2
2023/07/02 00:08:53;;;;;;;8.38;6.32;;;;;;;18.26;63.45;99060.38;30854343;28;96958;-67
2023/07/02 00:23:57;;;;;;;10.20;5.72;;;;;;;18.39;63.27;99064.59;30868592;28;108646;-68
2023/07/02 00:38:58;;;;;;;13.10;4.80;;;;;;;18.70;61.97;99067.69;30874593;28;96757;-67
2023/07/02 00:53:59;;;;;;;6.27;2.90;;;;;;;18.85;61.32;99067.88;30872535;28;96988;-66
2023/07/02 01:09:05;;;;;;;7.53;2.15;;;;;;;18.88;61.22;99053.91;30871502;28;96828;-70
2023/07/02 01:24:06;;;;;;;3.60;2.10;;;;;;;18.84;61.54;99052.75;30870741;28;96879;-70
2023/07/02 01:39:06;;;;;;;3.88;1.80;;;;;;;18.89;61.77;99046.63;30868363;28;97365;-65
2023/07/02 01:54:07;;;;;;;3.92;1.50;;;;;;;18.87;61.98;99059.53;30866901;28;96604;-69
2023/07/02 02:09:09;;;;;;;3.03;1.50;;;;;;;18.73;62.47;99059.09;30864586;28;107844;-68
2023/07/02 02:24:10;;;;;;;1.80;1.10;;;;;;;18.69;63.17;99068.78;30863418;28;96546;-69
2023/07/02 02:39:10;;;;;;;;;;;;;;;18.63;63.99;99080.53;30862242;28;97185;-63
2023/07/02 02:54:10;;;;;;;0.85;0.60;;;;;;;18.47;65.10;99085.75;30862562;28;96726;-66
2023/07/02 03:09:11;;;;;;;1.23;0.70;;;;;;;18.40;65.79;99087.81;30859414;28;103190;-71
2023/07/02 03:24:13;;;;;;;0.77;0.57;;;;;;;18.44;66.33;99080.88;30857099;28;112934;-64
2023/07/02 03:39:13;;;;;;;1.27;0.90;;;;;;;18.49;66.39;99088.19;30857093;28;96729;-66
2023/07/02 03:54:13;;;;;;;1.70;1.00;;;;;;;18.58;66.58;99100.19;30854399;28;97248;-66
2023/07/02 04:09:14;;;;;;;1.60;1.10;;;;;;;18.59;66.68;99112.63;30853870;28;111830;-70
2023/07/02 04:24:14;;;;;;;2.72;1.20;;;;;;;18.68;66.77;99121.88;30853977;28;96682;-68
2023/07/02 04:39:14;;;;;;;2.85;1.30;;;;;;;18.88;66.48;99129.47;30853101;28;96646;-64
2023/07/02 04:54:15;;;;;;;1.73;1.10;;;;;;;19.16;65.96;99146.50;30851111;28;113179;-63
2023/07/02 05:09:15;;;;;;;5.13;1.55;;;;;;;19.46;65.89;99139.81;30864119;28;111077;-68
2023/07/02 05:24:15;;;;;;;3.13;1.42;;;;;;;19.72;65.77;99151.69;30867877;28;97863;-65
2023/07/02 05:39:16;;;;;;;2.33;1.40;;;;;;;19.86;65.63;99165.66;30867126;28;96667;-71
2023/07/02 05:54:16;;;;;;;2.83;1.50;;;;;;;19.99;65.42;99179.81;30865561;28;96626;-68
2023/07/02 06:09:16;;;;;;;2.42;1.48;;;;;;;20.29;64.62;99188.16;30864257;28;110174;-71
2023/07/02 06:24:17;;;;;;;2.07;1.40;;;;;;;20.74;63.92;99185.25;30861874;28;100295;-64
2023/07/02 06:39:17;;;;;;;2.77;1.70;;;;;;;20.15;63.67;99200.50;30862124;28;96653;-64
2023/07/02 06:54:17;;;;;;;4.03;1.93;;;;;;;19.59;64.25;99206.94;30859954;28;96777;-67
2023/07/02 07:09:18;;;;;;;3.00;1.83;;;;;;;19.69;65.95;99229.75;30858876;28;97188;-64
2023/07/02 07:24:18;;;;;;;3.13;1.88;;;;;;;20.66;67.24;99223.59;30857084;28;101727;-67
2023/07/02 07:39:18;;;;;;;2.73;1.70;;;;;;;21.93;64.78;99236.06;30856755;28;111798;-70
2023/07/02 07:54:19;;;;;;;2.27;1.77;;;;;;;23.85;61.21;99234.59;30855223;28;106498;-66
2023/07/02 08:09:19;;;;;;;2.78;1.83;;;;;;;23.06;59.19;99240.66;30854721;28;96775;-70
2023/07/02 08:24:19;;;;;;;3.38;1.70;;;;;;;22.32;59.25;99259.16;30853488;28;106515;-70
2023/07/02 08:39:20;;;;;;;2.28;1.35;;;;;;;23.43;57.06;99263.09;30859581;28;97308;-70
2023/07/02 08:54:20;;;;;;;;;;;;;;;23.01;54.99;99277.88;30872575;28;97194;-70
2023/07/02 09:09:20;;;;;;;2.10;1.53;;;;;;;21.16;56.59;99281.00;30870120;28;97197;-71
2023/07/02 09:24:25;;;;;;;2.53;1.83;;;;;;;20.60;59.67;99280.34;30868188;28;106702;-70
2023/07/02 09:39:28;;;;;;;2.97;1.90;;;;;;;21.34;59.78;99298.72;30866933;28;97551;-68
2023/07/02 09:54:29;;;;;;;1.90;1.57;;;;;;;22.30;56.57;99304.75;30864416;28;97529;-68
2023/07/02 10:09:46;;;;;;;2.10;1.60;;;;;;;22.36;55.01;99302.88;30864659;28;97439;-71
2023/07/02 10:24:54;;;;;;;1.83;1.50;;;;;;;21.62;55.49;99309.19;30863508;28;97490;-70
2023/07/02 10:39:55;;;;;;;3.23;1.87;;;;;;;22.18;54.06;99302.28;30862779;28;97056;-70
2023/07/02 10:54:55;;;;;;;1.42;1.27;;;;;;;22.87;51.50;99296.63;30860299;28;97325;-70
2023/07/02 11:09:55;;;;;;;5.75;3.05;;;;;;;23.97;48.31;99292.19;30856183;28;109460;-71
2023/07/02 11:24:56;;;;;;;2.40;1.05;;;;;;;24.94;45.43;99283.59;30855810;28;103909;-71
2023/07/02 11:39:56;;;;;;;2.28;1.42;;;;;;;25.70;42.54;99288.44;30855250;28;112988;-71
2023/07/02 11:54:57;;;;;;;2.00;1.20;;;;;;;27.01;40.36;99280.44;30855150;28;96816;-70
2023/07/02 12:09:57;;;;;;;2.28;1.10;;;;;;;26.88;38.37;99270.28;30855728;28;97403;-71
2023/07/02 12:24:57;;;;;;;2.50;1.55;;;;;;;26.74;37.53;99258.53;30875477;28;106196;-70
2023/07/02 12:39:57;;;;;;;2.28;1.42;;;;;;;26.74;36.41;99242.97;30872261;28;97450;-70
2023/07/02 12:54:58;;;;;;;1.65;1.23;;;;;;;25.62;37.73;99273.56;30870883;28;115444;-68
2023/07/02 13:09:58;;;;;;;4.03;1.10;;;;;;;26.01;37.88;99270.56;30870089;28;97224;-71
2023/07/02 13:24:59;;;;;;;4.30;1.27;;;;;;;27.11;34.82;99273.16;30868186;28;96686;-71
2023/07/02 13:39:59;;;;;;;2.72;1.20;;;;;;;27.16;33.00;99287.53;30867452;28;104737;-70
2023/07/02 13:55:00;;;;;;;1.67;1.25;;;;;;;26.86;33.16;99327.19;30865092;28;97437;-68
2023/07/02 14:10:00;;;;;;;1.88;1.30;;;;;;;26.73;33.28;99328.75;30864506;28;96727;-71
2023/07/02 14:25:00;;;;;;;2.83;1.35;;;;;;;26.30;33.66;99329.66;30863538;28;97068;-71
2023/07/02 14:40:01;;;;;;;2.30;1.42;;;;;;;25.54;34.58;99326.84;30861231;28;97427;-72
2023/07/02 14:55:01;;;;;;;2.20;1.40;;;;;;;25.28;35.58;99340.72;30859077;28;109768;-65
2023/07/02 15:10:01;;;;;;;3.63;1.63;;;;;;;24.81;35.72;99331.38;30857547;28;111064;-68
2023/07/02 15:25:02;;;;;;;2.72;1.80;;;;;;;24.46;36.30;99323.16;30855129;28;100125;-66
2023/07/02 15:40:04;;;;;;;2.27;1.40;;;;;;;24.35;36.80;99329.00;30855145;28;97531;-69
2023/07/02 15:55:04;;;;;;;3.45;2.05;;;;;;;24.31;37.15;99334.97;30853822;28;96781;-69
2023/07/02 16:10:07;;;;;;;2.53;1.60;;;;;;;24.23;37.42;99332.84;30854613;28;97451;-68
2023/07/02 16:25:08;;;;;;;3.17;1.50;;;;;;;24.06;37.89;99338.69;30853766;28;96967;-67
2023/07/02 16:40:09;;;;;;;3.30;1.77;;;;;;;23.69;38.60;99360.84;30851959;28;96624;-66
2023/07/02 16:55:10;;;;;;;3.73;1.80;;;;;;;23.34;39.55;99351.72;30851455;28;97237;-68
2023/07/02 17:10:10;;;;;;;2.70;1.70;;;;;;;23.04;40.53;99370.47;30870116;28;96821;-68
2023/07/02 17:25:10;;;;;;;5.20;1.90;;;;;;;22.95;41.41;99386.50;30869078;28;103017;-67
2023/07/02 17:40:11;;;;;;;;;;;;;;;22.41;42.39;99392.44;30866759;28;111641;-66
2023/07/02 17:55:11;;;;;;;4.57;2.33;;;;;;;22.39;43.18;99410.88;30866231;28;97890;-67
2023/07/02 18:10:12;;;;;;;3.60;2.00;;;;;;;22.37;43.57;99421.19;30863554;28;96765;-70
2023/07/02 18:25:12;;;;;;;2.90;1.67;;;;;;;22.33;43.54;99436.34;30863599;28;96755;-68
2023/07/02 18:40:14;;;;;;;5.45;2.10;;;;;;;21.68;45.05;99450.97;30861081;28;96708;-71
2023/07/02 18:55:14;;;;;;;3.73;2.10;;;;;;;21.06;46.56;99465.91;30728956;28;97906;-64
2023/07/02 19:10:15;;;;;;;3.70;2.23;;;;;;;20.49;47.86;99486.97;30728412;28;96989;-65
2023/07/02 19:25:16;;;;;;;7.33;3.20;;;;;;;19.99;49.26;99506.88;30725417;28;97517;-65
2023/07/02 19:40:16;;;;;;;4.83;2.80;;;;;;;19.53;50.70;99531.28;30792987;28;97456;-69
2023/07/02 19:55:16;;;;;;;5.30;2.83;;;;;;;19.21;51.90;99529.16;30843055;28;97432;-65
2023/07/02 20:10:17;;;;;;;6.97;3.30;;;;;;;18.88;53.20;99558.50;30844574;28;97212;-69
2023/07/02 20:25:18;;;;;;;8.98;3.75;;;;;;;18.56;54.51;99567.03;30842168;28;96769;-68
2023/07/02 20:40:18;;;;;;;8.70;3.85;;;;;;;18.21;55.86;99564.41;30857424;28;97227;-69
2023/07/02 20:55:20;;;;;;;5.60;2.90;;;;;;;17.86;56.89;99589.44;30861256;28;97127;-65
2023/07/02 21:10:20;;;;;;;6.23;3.93;;;;;;;17.52;57.98;99599.91;30861175;28;96801;-68
2023/07/02 21:25:20;;;;;;;7.07;3.83;;;;;;;17.25;58.61;99614.59;30858685;28;102270;-68
2023/07/02 21:40:21;;;;;;;7.78;4.57;;;;;;;17.02;59.43;99627.94;30867977;28;106073;-69
2023/07/02 21:55:21;;;;;;;6.43;4.05;;;;;;;16.85;60.24;99628.53;30863971;28;96800;-70
2023/07/02 22:10:22;;;;;;;6.65;4.00;;;;;;;16.70;60.90;99644.19;30863690;28;108374;-67
2023/07/02 22:25:23;;;;;;;8.25;4.25;;;;;;;16.69;61.44;99650.63;30912080;28;97261;-70
2023/07/02 22:40:24;;;;;;;8.75;3.97;;;;;;;16.48;61.79;99662.63;30925800;28;96706;-67
2023/07/02 22:55:29;;;;;;;6.27;4.20;;;;;;;16.28;62.31;99660.97;30899324;28;96794;-66
2023/07/02 23:10:29;;;;;;;7.43;4.40;;;;;;;16.20;62.71;99658.56;30913974;28;96719;-67
2023/07/02 23:25:31;;;;;;;8.05;4.43;;;;;;;16.21;63.19;99644.06;30897218;28;107934;-67
2023/07/02 23:40:33;;;;;;;10.33;4.13;;;;;;;16.41;63.76;99649.25;30856724;28;97189;-67
2023/07/02 23:55:33;;;;;;;;;;;;;;;16.63;63.62;99641.59;30924003;28;96739;-66
